Time;durP1;ratioP1;P1;durP2;ratioP2;P2;SDS_P1;SDS_P2;PMS_P1;PMS_P2;Temp;Humidity;BMP_temperature;BMP_pressure;BME280_temperature;BME280_humidity;BME280_pressure;Samples;Min_cycle;Max_cycle;Signal;HPM_P1;HPM_P2
2022/11/29 00:00:03;;;;;;;;;9.75;9.75;;;;;10.86;68.76;101266.97;2378000;28;45291;-78
2022/11/29 00:01:19;;;;;;;;;12.75;10.00;;;;;10.84;68.73;101266.16;2383528;28;45560;-78
2022/11/29 00:02:29;;;;;;;;;13.00;10.75;;;;;10.83;68.72;101264.44;2384519;28;45223;-78
2022/11/29 00:03:40;;;;;;;;;11.50;10.50;;;;;10.84;68.72;101268.78;2374739;28;48076;-78
2022/11/29 00:04:50;;;;;;;;;11.75;11.00;;;;;10.82;68.71;101266.19;2375029;28;45148;-78
2022/11/29 00:06:15;;;;;;;;;12.25;10.25;;;;;10.82;68.67;101275.84;2377352;28;48205;-78
2022/11/29 00:07:25;;;;;;;;;14.50;11.00;;;;;10.80;68.52;101274.13;2365873;29;45367;-78
2022/11/29 00:08:36;;;;;;;;;11.25;11.00;;;;;10.79;68.71;101279.44;2374499;28;46331;-78
2022/11/29 00:09:46;;;;;;;;;10.25;10.25;;;;;10.77;68.88;101268.94;2374723;28;45314;-78
2022/11/29 00:11:02;;;;;;;;;14.75;13.00;;;;;10.76;68.84;101276.88;2377704;28;46264;-78
2022/11/29 00:12:12;;;;;;;;;11.00;10.00;;;;;10.74;68.57;101274.25;2384119;28;45384;-78
2022/11/29 00:13:23;;;;;;;;;10.50;9.75;;;;;10.72;68.68;101276.06;2384352;28;45370;-78
2022/11/29 00:14:33;;;;;;;;;12.75;10.25;;;;;10.71;69.02;101269.09;2384989;28;45387;-78
2022/11/29 00:15:43;;;;;;;;;14.00;12.25;;;;;10.70;68.63;101275.25;2374690;28;48009;-78
2022/11/29 00:17:00;;;;;;;;;13.25;12.25;;;;;10.71;68.84;101273.50;2367803;28;44755;-78
2022/11/29 00:18:11;;;;;;;;;12.75;11.50;;;;;10.70;68.96;101275.25;2378623;28;45429;-78
2022/11/29 00:19:21;;;;;;;;;13.75;12.00;;;;;10.69;68.45;101276.16;2385006;28;45258;-78
2022/11/29 00:20:33;;;;;;;;;11.50;10.25;;;;;10.68;68.69;101274.44;2384009;28;47990;-78
2022/11/29 00:21:43;;;;;;;;;12.75;11.00;;;;;10.68;68.85;101271.81;2384493;28;45359;-78
2022/11/29 00:22:53;;;;;;;;;12.00;11.25;;;;;10.68;68.62;101274.44;2384111;28;47923;-78
2022/11/29 00:24:04;;;;;;;;;13.00;10.50;;;;;10.67;68.86;101272.69;2384552;28;45570;-78
2022/11/29 00:25:15;;;;;;;;;12.25;11.00;;;;;10.67;68.94;101275.31;2374649;28;47110;-78
2022/11/29 00:26:25;;;;;;;;;9.75;8.50;;;;;10.66;68.64;101273.59;2377243;28;45275;-78
2022/11/29 00:27:36;;;;;;;;;12.00;12.00;;;;;10.64;69.22;101271.00;2384864;28;46599;-79
2022/11/29 00:28:46;;;;;;;;;17.00;15.25;;;;;10.64;68.88;101278.03;2384856;28;45342;-78
2022/11/29 00:29:57;;;;;;;;;14.00;12.50;;;;;10.63;68.90;101271.03;2384764;28;46561;-78
2022/11/29 00:31:15;;;;;;;;;15.25;14.75;;;;;10.64;69.16;101276.25;2383207;28;45252;-78
2022/11/29 00:32:25;;;;;;;;;17.50;14.75;;;;;10.63;68.96;101273.69;2384188;28;45390;-78
2022/11/29 00:33:36;;;;;;;;;19.75;14.50;;;;;10.63;69.21;101276.31;2374655;28;45372;-78
2022/11/29 00:34:46;;;;;;;;;16.75;15.75;;;;;10.62;69.04;101278.06;2368046;28;47406;-78
2022/11/29 00:36:00;;;;;;;;;19.00;19.00;;;;;10.61;68.77;101278.97;2377422;28;44744;-78
2022/11/29 00:37:10;;;;;;;;;20.50;17.25;;;;;10.62;69.12;101279.84;2374116;28;46964;-78
2022/11/29 00:38:20;;;;;;;;;20.00;17.00;;;;;10.62;69.35;101279.84;2368179;28;44568;-78
2022/11/29 00:39:31;;;;;;;;;18.50;18.00;;;;;10.61;69.01;101278.97;2377450;28;45330;-78
2022/11/29 00:40:41;;;;;;;;;18.75;18.00;;;;;10.58;69.18;101268.53;2384986;28;45187;-78
2022/11/29 00:41:52;;;;;;;;;17.50;16.75;;;;;10.61;69.13;101280.75;2374666;28;46503;-78
2022/11/29 00:43:02;;;;;;;;;20.25;18.25;;;;;10.60;69.17;101279.88;2367901;28;44928;-78
2022/11/29 00:44:12;;;;;;;;;16.25;15.00;;;;;10.58;69.03;101274.66;2367986;28;47056;-78
2022/11/29 00:45:22;;;;;;;;;25.25;20.50;;;;;10.58;69.19;101282.53;2377489;28;45351;-78
2022/11/29 00:46:33;;;;;;;;;22.25;18.75;;;;;10.60;69.25;101279.00;2383911;28;46303;-78
2022/11/29 00:47:43;;;;;;;;;20.75;16.50;;;;;10.57;69.23;101280.81;2374794;28;45296;-78
2022/11/29 00:48:53;;;;;;;;;20.50;18.00;;;;;10.57;69.24;101280.81;2377248;28;45385;-78
2022/11/29 00:50:05;;;;;;;;;18.50;18.00;;;;;10.58;69.27;101276.41;2374556;28;45255;-78
2022/11/29 00:51:15;;;;;;;;;19.75;16.00;;;;;10.57;69.37;101278.19;2367281;28;47152;-78
2022/11/29 00:52:25;;;;;;;;;20.25;19.00;;;;;10.57;69.28;101275.56;2366729;28;45251;-78
2022/11/29 00:53:36;;;;;;;;;25.50;20.50;;;;;10.58;69.13;101285.19;2380583;28;45421;-78
2022/11/29 00:54:46;;;;;;;;;18.00;17.00;;;;;10.56;69.38;101276.47;2384488;28;45462;-78
2022/11/29 00:55:57;;;;;;;;;20.25;19.00;;;;;10.56;69.33;101279.09;2383775;28;45501;-79
2022/11/29 00:57:07;;;;;;;;;17.75;15.75;;;;;10.57;69.49;101277.31;2384418;28;45173;-78
2022/11/29 00:58:19;;;;;;;;;19.25;19.25;;;;;10.56;69.12;101279.09;2384464;28;46241;-78
2022/11/29 00:59:29;;;;;;;;;21.50;19.50;;;;;10.56;69.28;101279.09;2384505;28;44768;-78
2022/11/29 01:00:39;;;;;;;;;17.75;17.75;;;;;10.56;69.28;101278.22;2374353;28;47412;-78
2022/11/29 01:01:50;;;;;;;;;22.00;18.00;;;;;10.55;69.35;101274.72;2367834;28;45289;-78
2022/11/29 01:03:00;;;;;;;;;23.00;18.00;;;;;10.54;69.25;101277.41;2377362;28;45299;-78
2022/11/29 01:04:11;;;;;;;;;20.25;18.00;;;;;10.55;69.19;101276.50;2374575;28;45224;-78
2022/11/29 01:05:21;;;;;;;;;20.00;17.75;;;;;10.54;69.25;101278.25;2367783;28;47066;-78
2022/11/29 01:06:32;;;;;;;;;15.75;15.75;;;;;10.54;69.67;101277.41;2374486;28;44775;-78
2022/11/29 01:07:42;;;;;;;;;16.75;15.75;;;;;10.53;69.04;101283.56;2380072;28;45514;-78
2022/11/29 01:08:52;;;;;;;;;17.00;15.75;;;;;10.54;69.01;101280.03;2383699;28;45448;-78
2022/11/29 01:10:03;;;;;;;;;22.50;18.00;;;;;10.50;69.05;101276.56;2383683;28;46084;-78
2022/11/29 01:11:20;;;;;;;;;20.25;17.75;;;;;10.51;69.05;101278.34;2374445;28;44785;-78
2022/11/29 01:12:34;;;;;;;;;18.75;16.00;;;;;10.50;69.07;101281.81;2378304;28;45412;-78
2022/11/29 01:13:45;;;;;;;;;19.25;18.00;;;;;10.50;69.07;101283.59;2384547;28;45417;-78
2022/11/29 01:14:57;;;;;;;;;18.50;17.50;;;;;10.49;69.20;101284.50;2384384;28;46279;-78
2022/11/29 01:16:08;;;;;;;;;17.75;16.25;;;;;10.49;69.13;101277.50;2383838;28;45235;-78
2022/11/29 01:17:18;;;;;;;;;20.75;18.50;;;;;10.48;69.02;101283.63;2383229;28;48106;-78
2022/11/29 01:18:29;;;;;;;;;20.50;18.00;;;;;10.47;69.04;101282.75;2384037;28;45227;-78
2022/11/29 01:19:40;;;;;;;;;18.25;16.25;;;;;10.47;68.95;101287.16;2374378;28;47262;-78
2022/11/29 01:21:02;;;;;;;;;13.50;11.50;;;;;10.45;69.07;101283.69;2374586;28;45237;-78
2022/11/29 01:22:13;;;;;;;;;15.25;14.75;;;;;10.44;69.09;101287.25;2375083;28;47911;-78
2022/11/29 01:23:23;;;;;;;;;17.25;15.75;;;;;10.43;68.96;101289.00;2374004;28;45311;-78
2022/11/29 01:24:33;;;;;;;;;20.00;15.25;;;;;10.43;69.16;101296.00;2377196;28;46210;-78
2022/11/29 01:25:44;;;;;;;;;16.50;14.25;;;;;10.42;69.07;101294.31;2384597;28;44903;-78
2022/11/29 01:26:54;;;;;;;;;16.50;14.25;;;;;10.42;69.07;101289.88;2384019;28;45346;-78
2022/11/29 01:28:04;;;;;;;;;17.00;15.75;;;;;10.39;69.26;101289.97;2384496;28;45240;-78
2022/11/29 01:29:15;;;;;;;;;16.00;13.25;;;;;10.39;68.71;101295.25;2384414;28;45459;-78
2022/11/29 01:30:25;;;;;;;;;16.75;14.50;;;;;10.38;69.13;101290.00;2374088;28;45323;-78
2022/11/29 01:31:35;;;;;;;;;16.00;15.00;;;;;10.37;69.10;101296.16;2376315;28;45395;-78
2022/11/29 01:32:46;;;;;;;;;16.00;15.00;;;;;10.35;69.39;101289.16;2383473;28;45390;-78
2022/11/29 01:33:59;;;;;;;;;16.25;14.00;;;;;10.35;68.94;101298.81;2384031;28;45421;-78
2022/11/29 01:35:09;;;;;;;;;16.25;15.75;;;;;10.32;68.97;101299.75;2384727;28;45216;-78
2022/11/29 01:36:20;;;;;;;;;18.00;14.00;;;;;10.33;69.07;101304.13;2383940;28;45420;-78
2022/11/29 01:37:31;;;;;;;;;17.75;17.00;;;;;10.31;69.15;101303.28;2383821;28;44543;-78
2022/11/29 01:38:42;;;;;;;;;18.00;14.50;;;;;10.29;69.14;101299.84;2383679;28;45352;-78
2022/11/29 01:39:52;;;;;;;;;18.00;17.00;;;;;10.29;69.25;101296.34;2374328;28;45355;-78
2022/11/29 01:41:06;;;;;;;;;18.00;15.75;;;;;10.30;69.23;101303.31;2377007;28;46172;-78
2022/11/29 01:42:17;;;;;;;;;18.25;17.50;;;;;10.30;69.34;101298.91;2374416;28;45427;-78
2022/11/29 01:43:28;;;;;;;;;21.00;16.00;;;;;10.29;69.16;101304.22;2376988;28;46011;-78
2022/11/29 01:44:38;;;;;;;;;17.75;15.75;;;;;10.30;69.19;101306.81;2384441;28;45160;-78
2022/11/29 01:45:49;;;;;;;;;16.25;16.25;;;;;10.30;69.36;101309.44;2384150;28;45344;-78
2022/11/29 01:46:59;;;;;;;;;18.25;17.00;;;;;10.28;69.30;101308.59;2383705;28;45295;-78
2022/11/29 01:48:12;;;;;;;;;13.50;13.00;;;;;10.27;69.47;101300.78;2383923;28;46453;-78
2022/11/29 01:49:36;;;;;;;;;17.75;17.00;;;;;10.28;69.69;101316.50;2374305;28;44788;-78
2022/11/29 01:50:47;;;;;;;;;22.00;16.25;;;;;10.27;69.65;101317.41;2369807;28;45693;-78
2022/11/29 01:52:05;;;;;;;;;15.25;14.50;;;;;10.29;69.63;101317.34;2381654;28;45432;-78
2022/11/29 01:53:15;;;;;;;;;17.00;16.25;;;;;10.27;69.57;101317.41;2383406;28;45314;-78
2022/11/29 01:54:28;;;;;;;;;16.75;13.75;;;;;10.27;69.38;101317.41;2384389;28;45254;-78
2022/11/29 01:55:43;;;;;;;;;16.00;15.75;;;;;10.28;69.80;101313.84;2374151;28;48101;-78
2022/11/29 01:56:54;;;;;;;;;19.00;15.50;;;;;10.28;69.55;101319.13;2377611;28;45276;-78
2022/11/29 01:58:07;;;;;;;;;17.50;16.25;;;;;10.29;69.80;101326.13;2384144;28;45447;-78
2022/11/29 01:59:20;;;;;;;;;18.25;17.25;;;;;10.29;70.07;101326.13;2384409;28;45485;-78
2022/11/29 02:00:31;;;;;;;;;15.75;14.50;;;;;10.30;69.81;101324.31;2383056;28;48351;-78
2022/11/29 02:01:41;;;;;;;;;16.00;15.00;;;;;10.32;69.67;101330.44;2383600;28;45251;-78
2022/11/29 02:03:02;;;;;;;;;14.50;13.50;;;;;10.30;69.90;101330.44;2374172;28;46929;-79
2022/11/29 02:04:12;;;;;;;;;16.25;14.25;;;;;10.30;69.82;101329.56;2378338;28;45333;-78
2022/11/29 02:05:24;;;;;;;;;16.25;15.00;;;;;10.31;69.79;101334.81;2383386;28;47298;-78
2022/11/29 02:06:35;;;;;;;;;15.75;14.75;;;;;10.32;70.02;101331.28;2383349;28;45185;-78
2022/11/29 02:07:49;;;;;;;;;24.50;16.75;;;;;10.33;70.05;101334.78;2382626;28;48146;-78
2022/11/29 02:09:00;;;;;;;;;13.00;13.00;;;;;10.33;70.07;101335.66;2383703;28;45199;-78
2022/11/29 02:10:12;;;;;;;;;17.00;15.00;;;;;10.33;69.92;101327.75;2374132;28;46683;-78
2022/11/29 02:11:41;;;;;;;;;15.50;13.75;;;;;10.35;69.93;101333.84;2377172;28;45402;-78
2022/11/29 02:13:05;;;;;;;;;16.00;16.00;;;;;10.34;69.71;101339.16;2384111;28;45818;-78
2022/11/29 02:14:33;;;;;;;;;17.25;14.50;;;;;10.38;69.72;101334.66;2384348;28;45267;-78
2022/11/29 02:15:57;;;;;;;;;16.25;15.50;;;;;10.37;70.05;101333.81;2383428;28;45261;-78
2022/11/29 02:17:34;;;;;;;;;14.25;12.00;;;;;10.38;70.12;101337.28;2380708;28;45367;-78
2022/11/29 02:18:45;;;;;;;;;23.75;18.50;;;;;10.39;70.12;101341.66;2364750;29;47292;-78
2022/11/29 02:20:14;;;;;;;;;15.00;13.50;;;;;10.40;69.82;101343.38;2375364;28;45531;-78
2022/11/29 02:21:34;;;;;;;;;17.75;16.00;;;;;10.40;70.09;101341.63;2383374;28;45550;-78
2022/11/29 02:23:06;;;;;;;;;16.50;14.75;;;;;10.41;70.24;101340.72;2384124;28;45292;-78
2022/11/29 02:24:36;;;;;;;;;14.00;14.00;;;;;10.44;70.12;101343.31;2384052;28;45455;-78
2022/11/29 02:26:17;;;;;;;;;17.75;13.00;;;;;10.46;70.40;101343.25;2384114;28;45226;-78
2022/11/29 02:28:04;;;;;;;;;20.50;17.00;;;;;10.49;70.55;101340.56;2382717;28;47264;-78
2022/11/29 02:29:46;;;;;;;;;15.25;13.00;;;;;10.51;70.48;101346.69;2384022;28;45453;-78
2022/11/29 02:31:47;;;;;;;;;17.50;16.75;;;;;10.51;70.39;101335.28;2350495;28;45453;-78
2022/11/29 02:33:15;;;;;;;;;17.25;14.50;;;;;10.54;70.46;101336.06;2384016;28;45414;-78
2022/11/29 02:35:05;;;;;;;;;16.75;11.75;;;;;10.56;70.50;101341.31;2383060;28;47215;-78
2022/11/29 02:36:46;;;;;;;;;15.00;14.25;;;;;10.57;70.36;101338.63;2383127;28;45438;-78
2022/11/29 02:38:15;;;;;;;;;14.75;13.50;;;;;10.58;70.42;101336.88;2373965;28;46801;-78
2022/11/29 02:39:37;;;;;;;;;17.50;13.00;;;;;10.57;70.59;101330.75;2374065;28;44809;-78
2022/11/29 02:41:09;;;;;;;;;15.00;14.50;;;;;10.60;70.22;101342.09;2383721;28;45314;-78
2022/11/29 02:42:47;;;;;;;;;13.75;12.00;;;;;10.60;70.14;101336.84;2383069;28;45461;-78
2022/11/29 02:43:58;;;;;;;;;14.00;11.25;;;;;10.62;70.39;101337.69;2383813;28;45427;-78
2022/11/29 02:45:40;;;;;;;;;14.00;12.25;;;;;10.62;70.39;101329.81;2382793;28;45309;-78
2022/11/29 02:47:04;;;;;;;;;11.75;11.75;;;;;10.62;70.14;101333.25;2367456;28;48321;-78
2022/11/29 02:48:49;;;;;;;;;19.00;13.75;;;;;10.63;70.14;101336.78;2378934;28;45338;-78
2022/11/29 02:50:15;;;;;;;;;11.50;10.00;;;;;10.62;70.32;101335.91;2383985;28;45491;-78
2022/11/29 02:51:52;;;;;;;;;11.50;10.00;;;;;10.63;70.23;101345.53;2384023;28;45409;-78
2022/11/29 02:53:15;;;;;;;;;10.50;8.25;;;;;10.63;70.03;101344.66;2382752;28;47247;-79
2022/11/29 02:54:41;;;;;;;;;10.75;9.50;;;;;10.65;70.07;101342.84;2383460;28;45326;-78
2022/11/29 02:56:11;;;;;;;;;13.00;11.00;;;;;10.65;70.40;101348.09;2381827;28;47347;-78
2022/11/29 02:57:40;;;;;;;;;8.25;7.50;;;;;10.66;70.05;101344.59;2379321;28;45619;-78
2022/11/29 02:59:26;;;;;;;;;9.75;9.25;;;;;10.65;70.07;101343.72;2374705;28;45408;-78
2022/11/29 03:00:48;;;;;;;;;9.25;9.25;;;;;10.64;70.16;101343.78;2376242;28;45307;-78
2022/11/29 03:02:26;;;;;;;;;15.75;10.00;;;;;10.66;70.18;101344.59;2384402;28;47235;-78
2022/11/29 03:03:47;;;;;;;;;11.50;10.50;;;;;10.66;70.04;101352.47;2385463;28;45271;-78
2022/11/29 03:05:02;;;;;;;;;9.25;8.50;;;;;10.66;70.03;101344.59;2374371;28;46521;-78
2022/11/29 03:06:20;;;;;;;;;11.50;10.00;;;;;10.66;70.29;101342.84;2378138;28;45354;-78
2022/11/29 03:07:45;;;;;;;;;10.25;7.00;;;;;10.68;70.18;101348.91;2383495;28;46136;-78
2022/11/29 03:09:12;;;;;;;;;10.00;8.25;;;;;10.67;70.21;101341.91;2384918;28;45303;-78
2022/11/29 03:10:44;;;;;;;;;8.00;8.00;;;;;10.70;70.31;101346.25;2385115;28;45522;-78
2022/11/29 03:12:23;;;;;;;;;11.00;6.50;;;;;10.70;70.08;101351.50;2385574;28;44613;-78
2022/11/29 03:14:13;;;;;;;;;5.25;5.25;;;;;10.71;70.13;101355.00;2384686;28;47225;-78
2022/11/29 03:15:56;;;;;;;;;8.50;7.50;;;;;10.72;70.19;101356.75;2373385;28;45374;-78
2022/11/29 03:17:09;;;;;;;;;8.00;7.00;;;;;10.71;70.10;101358.50;2385005;28;45372;-78
2022/11/29 03:18:35;;;;;;;;;9.25;7.00;;;;;10.72;70.04;101354.09;2384333;28;45500;-78
2022/11/29 03:20:20;;;;;;;;;7.25;6.75;;;;;10.72;69.88;101356.75;2375141;28;47862;-78
2022/11/29 03:21:47;;;;;;;;;9.00;7.00;;;;;10.71;70.04;101358.50;2363773;29;45224;-78
2022/11/29 03:23:18;;;;;;;;;9.00;7.25;;;;;10.71;69.96;101357.63;2375168;28;47410;-78
2022/11/29 03:25:05;;;;;;;;;8.25;8.00;;;;;10.72;69.99;101360.22;2381300;28;45253;-78
2022/11/29 03:26:54;;;;;;;;;9.75;8.00;;;;;10.73;70.24;101359.31;2379046;28;46444;-79
2022/11/29 03:28:18;;;;;;;;;6.75;6.75;;;;;10.71;69.93;101363.75;2375604;28;45331;-78
2022/11/29 03:29:37;;;;;;;;;10.75;8.50;;;;;10.72;70.31;101359.38;2375146;28;47098;-78
2022/11/29 03:31:28;;;;;;;;;9.50;8.00;;;;;10.74;70.37;101358.41;2383308;28;45331;-78
2022/11/29 03:32:49;;;;;;;;;8.75;8.75;;;;;10.74;70.20;101361.03;2375133;28;48029;-78
2022/11/29 03:34:09;;;;;;;;;16.50;13.75;;;;;10.72;70.54;101365.47;2375294;28;44708;-78
2022/11/29 03:35:39;;;;;;;;;13.75;12.75;;;;;10.74;70.30;101363.66;2378805;28;47497;-78
2022/11/29 03:36:56;;;;;;;;;12.50;11.25;;;;;10.75;70.44;101365.41;2384793;28;44831;-79
2022/11/29 03:38:13;;;;;;;;;14.75;12.50;;;;;10.75;70.36;101370.66;2385206;28;46516;-78
2022/11/29 03:39:48;;;;;;;;;13.75;12.00;;;;;10.74;70.18;101366.28;2384337;28;45350;-78
2022/11/29 03:41:35;;;;;;;;;17.50;14.00;;;;;10.75;70.02;101362.78;2374933;28;48141;-78
2022/11/29 03:42:55;;;;;;;;;16.00;13.50;;;;;10.75;70.29;101372.41;2383013;28;45308;-78
2022/11/29 03:44:11;;;;;;;;;16.75;14.50;;;;;10.77;70.18;101379.38;2374383;28;46776;-78
2022/11/29 03:45:35;;;;;;;;;13.25;12.25;;;;;10.75;70.41;101370.66;2378985;28;45240;-78
2022/11/29 03:47:17;;;;;;;;;14.25;12.50;;;;;10.78;70.39;101373.22;2376168;28;47329;-78
2022/11/29 03:48:36;;;;;;;;;14.50;13.00;;;;;10.78;70.58;101381.13;2375304;28;45412;-78
2022/11/29 03:49:54;;;;;;;;;16.00;15.00;;;;;10.77;70.44;101379.38;2379237;28;46595;-78
2022/11/29 03:51:22;;;;;;;;;18.75;17.00;;;;;10.78;70.60;101380.25;2385522;28;45255;-78
2022/11/29 03:52:53;;;;;;;;;15.75;15.75;;;;;10.80;70.79;101389.81;2374816;28;48253;-78
2022/11/29 03:54:10;;;;;;;;;17.25;16.25;;;;;10.78;70.64;101381.13;2375111;28;44798;-78
2022/11/29 03:55:20;;;;;;;;;16.50;16.50;;;;;10.80;70.45;101384.56;2378252;28;48041;-78
2022/11/29 03:56:33;;;;;;;;;15.00;12.00;;;;;10.80;70.59;101388.94;2384763;28;45232;-78
2022/11/29 03:57:50;;;;;;;;;14.75;12.25;;;;;10.82;70.47;101386.28;2384760;28;47522;-78
2022/11/29 03:59:00;;;;;;;;;19.00;17.00;;;;;10.83;70.63;101388.91;2384886;28;44830;-79
2022/11/29 04:00:12;;;;;;;;;17.00;15.75;;;;;10.84;70.83;101387.13;2384242;28;48355;-78
2022/11/29 04:01:25;;;;;;;;;17.75;16.00;;;;;10.84;70.59;101393.22;2383644;28;44669;-78
2022/11/29 04:03:09;;;;;;;;;17.00;14.25;;;;;10.84;70.70;101395.03;2384306;28;45498;-78
2022/11/29 04:04:38;;;;;;;;;16.25;16.25;;;;;10.85;70.66;101396.72;2385069;28;44561;-78
2022/11/29 04:06:06;;;;;;;;;15.00;13.25;;;;;10.85;70.59;101402.00;2384989;28;45266;-78
2022/11/29 04:07:40;;;;;;;;;16.25;14.75;;;;;10.86;70.62;101401.09;2384683;28;45293;-78
2022/11/29 04:09:33;;;;;;;;;19.50;16.00;;;;;10.85;70.72;101396.72;2384921;28;46519;-78
2022/11/29 04:11:20;;;;;;;;;17.00;15.50;;;;;10.86;70.79;101401.09;2377246;28;45188;-78
2022/11/29 04:12:59;;;;;;;;;17.25;15.75;;;;;10.85;70.72;101402.00;2374770;28;48380;-78
2022/11/29 04:14:35;;;;;;;;;17.00;15.50;;;;;10.87;70.88;101397.56;2374899;28;44639;-78
2022/11/29 04:16:07;;;;;;;;;18.25;14.50;;;;;10.86;70.71;101399.34;2380750;28;45575;-78
2022/11/29 04:17:42;;;;;;;;;19.25;16.25;;;;;10.88;70.76;101407.19;2383565;28;45652;-79
2022/11/29 04:19:20;;;;;;;;;15.00;12.50;;;;;10.87;71.07;101402.81;2384404;28;45421;-78
2022/11/29 04:21:08;;;;;;;;;17.00;15.00;;;;;10.88;70.91;101407.19;2385007;28;45515;-78
2022/11/29 04:22:27;;;;;;;;;20.75;15.75;;;;;10.87;70.61;101408.06;2384003;28;47335;-78
2022/11/29 04:23:56;;;;;;;;;18.00;17.00;;;;;10.87;71.07;101416.84;2384508;28;44573;-78
2022/11/29 04:25:06;;;;;;;;;16.75;13.50;;;;;10.87;70.86;101413.34;2384831;28;45352;-78
2022/11/29 04:26:39;;;;;;;;;15.00;13.75;;;;;10.87;70.59;101416.84;2384180;28;45409;-78
2022/11/29 04:27:59;;;;;;;;;17.00;14.75;;;;;10.89;70.87;101419.44;2384436;28;48362;-78
2022/11/29 04:29:20;;;;;;;;;18.25;16.00;;;;;10.89;70.86;101420.28;2384120;28;45287;-78
2022/11/29 04:31:06;;;;;;;;;15.75;15.50;;;;;10.90;70.56;101418.53;2373777;28;48333;-78
2022/11/29 04:32:38;;;;;;;;;15.00;15.00;;;;;10.91;70.76;101417.66;2380855;28;45572;-78
2022/11/29 04:33:58;;;;;;;;;16.00;16.00;;;;;10.93;70.89;101421.09;2384815;28;45312;-78
2022/11/29 04:35:29;;;;;;;;;17.00;14.75;;;;;10.91;70.92;101418.47;2384946;28;45291;-78
2022/11/29 04:36:42;;;;;;;;;17.00;16.00;;;;;10.93;70.91;101426.38;2384720;28;45497;-78
2022/11/29 04:37:55;;;;;;;;;20.00;18.00;;;;;10.92;70.78;101419.34;2383760;28;45388;-78
2022/11/29 04:39:31;;;;;;;;;15.50;14.75;;;;;10.93;70.89;101430.75;2382918;28;46910;-79
2022/11/29 04:41:12;;;;;;;;;17.00;16.00;;;;;10.93;70.99;101431.63;2384693;28;44759;-78
2022/11/29 04:42:38;;;;;;;;;23.75;19.00;;;;;10.93;70.69;101431.63;2384674;28;45614;-78
2022/11/29 04:44:00;;;;;;;;;18.00;16.00;;;;;10.93;70.89;101434.25;2384796;28;45227;-78
2022/11/29 04:45:29;;;;;;;;;21.25;18.00;;;;;10.91;71.04;101436.91;2384560;28;46289;-78
2022/11/29 04:47:00;;;;;;;;;16.25;16.25;;;;;10.91;70.64;101439.53;2383276;28;45278;-78
2022/11/29 04:48:14;;;;;;;;;16.25;16.25;;;;;10.92;70.92;101435.13;2378096;28;45434;-78
2022/11/29 04:50:01;;;;;;;;;19.25;16.00;;;;;10.93;70.67;101441.28;2384801;28;44721;-78
2022/11/29 04:51:40;;;;;;;;;18.25;18.00;;;;;10.92;70.75;101437.78;2384741;28;46289;-79
2022/11/29 04:53:00;;;;;;;;;22.25;17.50;;;;;10.92;71.13;101432.50;2374496;28;45285;-78
2022/11/29 04:54:56;;;;;;;;;19.75;16.75;;;;;10.93;70.90;101442.13;2378023;28;47762;-78
2022/11/29 04:56:24;;;;;;;;;19.25;19.00;;;;;10.94;70.61;101435.13;2374230;28;45587;-78
2022/11/29 04:57:56;;;;;;;;;19.50;16.50;;;;;10.92;70.80;101435.13;2381069;28;48450;-78
2022/11/29 04:59:29;;;;;;;;;23.00;19.25;;;;;10.90;70.67;101437.81;2383862;28;45506;-78
2022/11/29 05:00:52;;;;;;;;;20.75;19.25;;;;;10.91;70.57;101443.94;2383176;28;46519;-79
2022/11/29 05:02:36;;;;;;;;;20.00;17.25;;;;;10.92;70.72;101448.28;2374468;28;45272;-78
2022/11/29 05:03:57;;;;;;;;;19.75;18.75;;;;;10.91;70.72;101450.03;2381971;28;45572;-78
2022/11/29 05:05:31;;;;;;;;;21.25;19.25;;;;;10.91;70.76;101454.47;2383585;28;45324;-78
2022/11/29 05:06:52;;;;;;;;;20.00;19.00;;;;;10.92;70.55;101445.66;2377917;28;47452;-78
2022/11/29 05:08:10;;;;;;;;;19.50;16.50;;;;;10.91;70.52;101454.47;2382478;28;45562;-79
2022/11/29 05:09:30;;;;;;;;;20.00;18.25;;;;;10.89;70.60;101461.53;2384476;28;45517;-78
2022/11/29 05:10:47;;;;;;;;;20.00;17.00;;;;;10.90;70.63;101457.97;2384628;28;45244;-78
2022/11/29 05:12:20;;;;;;;;;21.00;16.50;;;;;10.91;70.50;101459.72;2374204;28;48006;-78
2022/11/29 05:13:44;;;;;;;;;19.00;17.00;;;;;10.90;70.74;101457.97;2380345;28;45236;-78
2022/11/29 05:15:03;;;;;;;;;22.75;18.75;;;;;10.90;70.78;101460.63;2374002;28;46990;-78
2022/11/29 05:16:20;;;;;;;;;18.75;17.25;;;;;10.91;70.72;101462.34;2378044;28;45307;-78
2022/11/29 05:17:45;;;;;;;;;22.00;19.50;;;;;10.90;70.72;101469.38;2374121;28;47638;-78
2022/11/29 05:19:10;;;;;;;;;18.25;17.00;;;;;10.90;71.01;101469.38;2374467;28;45443;-78
2022/11/29 05:20:33;;;;;;;;;17.75;16.75;;;;;10.92;70.63;101466.69;2376502;28;46381;-78
2022/11/29 05:21:59;;;;;;;;;17.50;17.00;;;;;10.90;70.59;101468.50;2375080;28;45256;-78
2022/11/29 05:23:18;;;;;;;;;14.25;13.00;;;;;10.91;70.66;101470.25;2383042;28;46993;-78
2022/11/29 05:25:03;;;;;;;;;20.75;17.25;;;;;10.92;70.89;101471.97;2384163;28;44621;-78
2022/11/29 05:26:23;;;;;;;;;20.75;18.00;;;;;10.90;70.67;101466.75;2384033;28;46497;-78
2022/11/29 05:27:48;;;;;;;;;22.00;19.00;;;;;10.92;70.70;101471.97;2384559;28;45237;-78
2022/11/29 05:29:04;;;;;;;;;20.75;18.50;;;;;10.92;70.87;101474.59;2384203;28;45659;-78
2022/11/29 05:30:19;;;;;;;;;17.00;16.00;;;;;10.93;70.67;101476.34;2384439;28;44757;-79
2022/11/29 05:31:51;;;;;;;;;20.75;20.00;;;;;10.93;70.63;101473.69;2383163;28;45381;-79
2022/11/29 05:33:23;;;;;;;;;18.25;16.75;;;;;10.93;70.59;101484.22;2384328;28;45210;-78
2022/11/29 05:34:50;;;;;;;;;12.50;12.50;;;;;10.91;70.79;101478.97;2383488;28;47960;-78
2022/11/29 05:36:13;;;;;;;;;19.25;17.50;;;;;10.93;70.77;101484.22;2383866;28;44791;-78
2022/11/29 05:37:44;;;;;;;;;19.25;18.75;;;;;10.93;70.50;101484.22;2384206;28;46748;-78
2022/11/29 05:39:13;;;;;;;;;19.50;18.50;;;;;10.94;70.79;101485.09;2383643;28;45354;-78
2022/11/29 05:40:55;;;;;;;;;20.00;20.00;;;;;10.93;71.02;101486.84;2376531;28;46470;-78
2022/11/29 05:42:27;;;;;;;;;19.75;18.75;;;;;10.94;70.67;101491.19;2384483;28;44775;-78
2022/11/29 05:43:46;;;;;;;;;19.75;18.25;;;;;10.93;70.82;101489.47;2383320;28;48408;-78
2022/11/29 05:45:14;;;;;;;;;19.50;17.25;;;;;10.94;70.87;101487.72;2379993;28;45422;-78
2022/11/29 05:46:55;;;;;;;;;16.25;15.75;;;;;10.94;70.85;101499.09;2382792;28;47606;-78
2022/11/29 05:48:47;;;;;;;;;16.25;15.00;;;;;10.92;70.56;101498.25;2383110;28;45196;-78
2022/11/29 05:50:14;;;;;;;;;20.25;18.75;;;;;10.93;70.75;101500.00;2382845;28;46473;-79
2022/11/29 05:51:28;;;;;;;;;18.50;18.25;;;;;10.93;70.88;101502.63;2382721;28;45298;-79
2022/11/29 05:52:50;;;;;;;;;19.25;18.25;;;;;10.96;70.89;101506.97;2383469;28;45478;-78
2022/11/29 05:54:19;;;;;;;;;24.00;19.25;;;;;10.95;70.92;101510.47;2384276;28;45184;-79
2022/11/29 05:55:44;;;;;;;;;19.00;17.00;;;;;10.94;70.75;101508.78;2383388;28;45525;-79
2022/11/29 05:57:26;;;;;;;;;20.00;19.00;;;;;10.96;70.73;101509.59;2384377;28;44775;-79
2022/11/29 05:58:39;;;;;;;;;24.50;21.00;;;;;10.96;70.91;101515.72;2373997;28;48160;-79
2022/11/29 05:59:50;;;;;;;;;21.75;20.00;;;;;10.93;70.71;101510.53;2377490;28;45335;-79
2022/11/29 06:01:08;;;;;;;;;22.75;20.00;;;;;10.94;70.79;101509.59;2383903;28;45489;-79
2022/11/29 06:02:21;;;;;;;;;21.00;19.75;;;;;10.96;70.64;101514.84;2383407;28;45229;-79
2022/11/29 06:03:38;;;;;;;;;19.25;15.25;;;;;10.96;70.85;101510.47;2384111;28;46535;-79
2022/11/29 06:04:54;;;;;;;;;17.00;14.00;;;;;10.96;70.66;101505.22;2374117;28;45260;-79
2022/11/29 06:06:16;;;;;;;;;24.00;22.50;;;;;10.97;70.71;101512.19;2368319;28;47172;-79
2022/11/29 06:07:51;;;;;;;;;20.75;19.50;;;;;10.96;70.65;101515.72;2377888;28;45401;-79
2022/11/29 06:09:15;;;;;;;;;22.25;21.25;;;;;10.96;70.46;101520.13;2384071;28;46586;-79
2022/11/29 06:10:31;;;;;;;;;19.25;16.75;;;;;10.95;70.36;101523.63;2374248;28;45431;-79